sensor_id;sensor_type;location;lat;lon;timestamp;temperature;humidity
5118;DHT22;2578;51.622;7.046;2022-07-17T00:00:03;10.40;99.90
5118;DHT22;2578;51.622;7.046;2022-07-17T00:02:29;10.40;99.90
5118;DHT22;2578;51.622;7.046;2022-07-17T00:04:54;10.40;99.90
5118;DHT22;2578;51.622;7.046;2022-07-17T00:07:20;10.40;99.90
5118;DHT22;2578;51.622;7.046;2022-07-17T00:09:46;10.30;99.90
5118;DHT22;2578;51.622;7.046;2022-07-17T00:12:11;10.30;99.90
5118;DHT22;2578;51.622;7.046;2022-07-17T00:14:37;10.20;99.90
5118;DHT22;2578;51.622;7.046;2022-07-17T00:17:03;10.20;99.90
5118;DHT22;2578;51.622;7.046;2022-07-17T00:19:32;10.20;99.90
5118;DHT22;2578;51.622;7.046;2022-07-17T00:21:58;10.20;99.90
5118;DHT22;2578;51.622;7.046;2022-07-17T00:24:23;10.10;99.90
5118;DHT22;2578;51.622;7.046;2022-07-17T00:26:50;10.10;99.90
5118;DHT22;2578;51.622;7.046;2022-07-17T00:29:17;10.10;99.90
5118;DHT22;2578;51.622;7.046;2022-07-17T00:31:43;10.00;99.90
5118;DHT22;2578;51.622;7.046;2022-07-17T00:34:09;10.00;99.90
5118;DHT22;2578;51.622;7.046;2022-07-17T00:36:34;10.00;99.90
5118;DHT22;2578;51.622;7.046;2022-07-17T00:39:00;9.90;99.90
5118;DHT22;2578;51.622;7.046;2022-07-17T00:41:26;9.90;99.90
5118;DHT22;2578;51.622;7.046;2022-07-17T00:43:51;9.90;99.90
5118;DHT22;2578;51.622;7.046;2022-07-17T00:46:17;9.90;99.90
5118;DHT22;2578;51.622;7.046;2022-07-17T00:48:44;9.80;99.90
5118;DHT22;2578;51.622;7.046;2022-07-17T00:51:10;10.00;99.90
5118;DHT22;2578;51.622;7.046;2022-07-17T00:53:37;9.80;99.90
5118;DHT22;2578;51.622;7.046;2022-07-17T00:56:04;9.80;99.90
5118;DHT22;2578;51.622;7.046;2022-07-17T00:58:34;9.70;99.90
5118;DHT22;2578;51.622;7.046;2022-07-17T01:01:05;9.60;99.90
5118;DHT22;2578;51.622;7.046;2022-07-17T01:03:33;9.50;99.90
5118;DHT22;2578;51.622;7.046;2022-07-17T01:05:59;9.50;99.90
5118;DHT22;2578;51.622;7.046;2022-07-17T01:08:26;9.50;99.90
5118;DHT22;2578;51.622;7.046;2022-07-17T01:10:51;9.50;99.90
5118;DHT22;2578;51.622;7.046;2022-07-17T01:13:17;9.50;99.90
5118;DHT22;2578;51.622;7.046;2022-07-17T01:15:44;9.50;99.90
5118;DHT22;2578;51.622;7.046;2022-07-17T01:18:12;9.50;99.90
5118;DHT22;2578;51.622;7.046;2022-07-17T01:20:39;9.50;99.90
5118;DHT22;2578;51.622;7.046;2022-07-17T01:25:32;9.40;99.90
5118;DHT22;2578;51.622;7.046;2022-07-17T01:27:59;9.40;99.90
5118;DHT22;2578;51.622;7.046;2022-07-17T01:30:25;9.30;99.90
5118;DHT22;2578;51.622;7.046;2022-07-17T01:32:51;9.40;99.90
5118;DHT22;2578;51.622;7.046;2022-07-17T01:35:17;9.30;99.90
5118;DHT22;2578;51.622;7.046;2022-07-17T01:37:43;9.40;99.90
5118;DHT22;2578;51.622;7.046;2022-07-17T01:40:10;9.30;99.90
5118;DHT22;2578;51.622;7.046;2022-07-17T01:42:39;9.20;99.90
5118;DHT22;2578;51.622;7.046;2022-07-17T01:45:05;9.10;99.90
5118;DHT22;2578;51.622;7.046;2022-07-17T01:47:31;9.10;99.90
5118;DHT22;2578;51.622;7.046;2022-07-17T01:49:57;9.10;99.90
5118;DHT22;2578;51.622;7.046;2022-07-17T01:52:25;9.00;99.90
5118;DHT22;2578;51.622;7.046;2022-07-17T01:54:52;9.00;99.90
5118;DHT22;2578;51.622;7.046;2022-07-17T01:57:18;9.00;99.90
5118;DHT22;2578;51.622;7.046;2022-07-17T01:59:44;9.00;99.90
5118;DHT22;2578;51.622;7.046;2022-07-17T02:02:10;8.90;99.90
5118;DHT22;2578;51.622;7.046;2022-07-17T02:04:37;8.90;99.90
5118;DHT22;2578;51.622;7.046;2022-07-17T02:07:04;8.90;99.90
5118;DHT22;2578;51.622;7.046;2022-07-17T02:09:30;8.90;99.90
5118;DHT22;2578;51.622;7.046;2022-07-17T02:11:56;8.90;99.90
5118;DHT22;2578;51.622;7.046;2022-07-17T02:14:22;8.80;99.90
5118;DHT22;2578;51.622;7.046;2022-07-17T02:16:48;8.80;99.90
5118;DHT22;2578;51.622;7.046;2022-07-17T02:19:14;8.80;99.90
5118;DHT22;2578;51.622;7.046;2022-07-17T02:21:39;8.80;99.90
5118;DHT22;2578;51.622;7.046;2022-07-17T02:24:05;8.70;99.90
5118;DHT22;2578;51.622;7.046;2022-07-17T02:26:31;8.60;99.90
5118;DHT22;2578;51.622;7.046;2022-07-17T02:28:57;8.60;99.90
5118;DHT22;2578;51.622;7.046;2022-07-17T02:31:22;8.50;99.90
5118;DHT22;2578;51.622;7.046;2022-07-17T02:33:48;8.50;99.90
5118;DHT22;2578;51.622;7.046;2022-07-17T02:36:14;8.50;99.90
5118;DHT22;2578;51.622;7.046;2022-07-17T02:38:40;8.50;99.90
5118;DHT22;2578;51.622;7.046;2022-07-17T02:41:05;8.50;99.90
5118;DHT22;2578;51.622;7.046;2022-07-17T02:43:31;8.50;99.90
5118;DHT22;2578;51.622;7.046;2022-07-17T02:45:57;8.50;99.90
5118;DHT22;2578;51.622;7.046;2022-07-17T02:48:23;8.50;99.90
5118;DHT22;2578;51.622;7.046;2022-07-17T02:50:49;8.40;99.90
5118;DHT22;2578;51.622;7.046;2022-07-17T02:53:14;8.30;99.90
5118;DHT22;2578;51.622;7.046;2022-07-17T02:55:40;8.30;99.90
5118;DHT22;2578;51.622;7.046;2022-07-17T02:58:06;8.30;99.90
5118;DHT22;2578;51.622;7.046;2022-07-17T03:00:31;8.30;99.90
5118;DHT22;2578;51.622;7.046;2022-07-17T03:02:57;8.40;99.90
5118;DHT22;2578;51.622;7.046;2022-07-17T03:05:23;8.40;99.90
5118;DHT22;2578;51.622;7.046;2022-07-17T03:07:48;8.40;99.90
5118;DHT22;2578;51.622;7.046;2022-07-17T03:10:14;8.30;99.90
5118;DHT22;2578;51.622;7.046;2022-07-17T03:12:41;8.30;99.90
5118;DHT22;2578;51.622;7.046;2022-07-17T03:15:07;8.30;99.90
5118;DHT22;2578;51.622;7.046;2022-07-17T03:17:33;8.30;99.90
5118;DHT22;2578;51.622;7.046;2022-07-17T03:19:59;8.30;99.90
5118;DHT22;2578;51.622;7.046;2022-07-17T03:22:25;8.20;99.90
5118;DHT22;2578;51.622;7.046;2022-07-17T03:24:50;8.10;99.90
5118;DHT22;2578;51.622;7.046;2022-07-17T03:27:16;8.10;99.90
5118;DHT22;2578;51.622;7.046;2022-07-17T03:29:42;8.10;99.90
5118;DHT22;2578;51.622;7.046;2022-07-17T03:32:09;8.00;99.90
5118;DHT22;2578;51.622;7.046;2022-07-17T03:34:36;8.00;99.90
5118;DHT22;2578;51.622;7.046;2022-07-17T03:37:02;8.20;99.90
5118;DHT22;2578;51.622;7.046;2022-07-17T03:39:29;8.10;99.90
5118;DHT22;2578;51.622;7.046;2022-07-17T03:41:55;8.10;99.90
5118;DHT22;2578;51.622;7.046;2022-07-17T03:44:21;8.10;99.90
5118;DHT22;2578;51.622;7.046;2022-07-17T03:46:47;8.10;99.90
5118;DHT22;2578;51.622;7.046;2022-07-17T03:49:12;8.10;99.90
5118;DHT22;2578;51.622;7.046;2022-07-17T03:51:38;8.10;99.90
5118;DHT22;2578;51.622;7.046;2022-07-17T03:54:04;8.20;99.90
5118;DHT22;2578;51.622;7.046;2022-07-17T03:56:29;8.30;99.90
5118;DHT22;2578;51.622;7.046;2022-07-17T03:58:55;8.30;99.90
5118;DHT22;2578;51.622;7.046;2022-07-17T04:01:21;8.30;99.90
5118;DHT22;2578;51.622;7.046;2022-07-17T04:03:46;8.20;99.90
5118;DHT22;2578;51.622;7.046;2022-07-17T04:06:12;8.20;99.90
5118;DHT22;2578;51.622;7.046;2022-07-17T04:08:38;8.30;99.90
5118;DHT22;2578;51.622;7.046;2022-07-17T04:11:03;8.30;99.90
5118;DHT22;2578;51.622;7.046;2022-07-17T04:13:29;8.50;99.90
5118;DHT22;2578;51.622;7.046;2022-07-17T04:15:55;8.50;99.90
5118;DHT22;2578;51.622;7.046;2022-07-17T04:18:27;8.50;99.90
5118;DHT22;2578;51.622;7.046;2022-07-17T04:20:55;8.50;99.90
5118;DHT22;2578;51.622;7.046;2022-07-17T04:23:21;8.60;99.90
5118;DHT22;2578;51.622;7.046;2022-07-17T04:25:47;8.70;99.90
5118;DHT22;2578;51.622;7.046;2022-07-17T04:28:14;8.80;99.90
5118;DHT22;2578;51.622;7.046;2022-07-17T04:30:40;8.90;99.90
5118;DHT22;2578;51.622;7.046;2022-07-17T04:33:05;9.00;99.90
5118;DHT22;2578;51.622;7.046;2022-07-17T04:35:31;9.10;99.90
5118;DHT22;2578;51.622;7.046;2022-07-17T04:37:57;9.10;99.90
5118;DHT22;2578;51.622;7.046;2022-07-17T04:40:23;9.30;99.90
5118;DHT22;2578;51.622;7.046;2022-07-17T04:42:49;9.30;99.90
5118;DHT22;2578;51.622;7.046;2022-07-17T04:45:15;9.30;99.90
5118;DHT22;2578;51.622;7.046;2022-07-17T04:47:41;9.40;99.90
5118;DHT22;2578;51.622;7.046;2022-07-17T04:50:08;9.50;99.90
5118;DHT22;2578;51.622;7.046;2022-07-17T04:52:34;9.70;99.90
5118;DHT22;2578;51.622;7.046;2022-07-17T04:54:59;9.80;99.90
5118;DHT22;2578;51.622;7.046;2022-07-17T04:57:25;9.90;99.90
5118;DHT22;2578;51.622;7.046;2022-07-17T04:59:51;10.00;99.90
5118;DHT22;2578;51.622;7.046;2022-07-17T05:02:17;10.20;99.90
5118;DHT22;2578;51.622;7.046;2022-07-17T05:04:43;10.50;99.90
5118;DHT22;2578;51.622;7.046;2022-07-17T05:07:08;11.00;99.90
5118;DHT22;2578;51.622;7.046;2022-07-17T05:09:34;11.40;99.90
5118;DHT22;2578;51.622;7.046;2022-07-17T05:11:59;12.00;99.90
5118;DHT22;2578;51.622;7.046;2022-07-17T05:14:25;12.60;99.90
5118;DHT22;2578;51.622;7.046;2022-07-17T05:16:51;13.10;99.90
5118;DHT22;2578;51.622;7.046;2022-07-17T05:19:16;13.80;99.90
5118;DHT22;2578;51.622;7.046;2022-07-17T05:21:42;14.50;99.90
5118;DHT22;2578;51.622;7.046;2022-07-17T05:24:07;15.10;99.90
5118;DHT22;2578;51.622;7.046;2022-07-17T05:26:33;15.40;99.90
5118;DHT22;2578;51.622;7.046;2022-07-17T05:28:59;15.70;99.90
5118;DHT22;2578;51.622;7.046;2022-07-17T05:31:24;15.90;99.90
5118;DHT22;2578;51.622;7.046;2022-07-17T05:33:50;16.40;99.90
5118;DHT22;2578;51.622;7.046;2022-07-17T05:36:16;16.60;99.90
5118;DHT22;2578;51.622;7.046;2022-07-17T05:38:42;17.00;99.90
5118;DHT22;2578;51.622;7.046;2022-07-17T05:41:07;17.20;99.90
5118;DHT22;2578;51.622;7.046;2022-07-17T05:43:33;17.40;99.90
5118;DHT22;2578;51.622;7.046;2022-07-17T05:45:59;17.40;99.90
5118;DHT22;2578;51.622;7.046;2022-07-17T05:48:26;17.60;99.90
5118;DHT22;2578;51.622;7.046;2022-07-17T05:50:52;17.70;99.90
5118;DHT22;2578;51.622;7.046;2022-07-17T05:53:17;18.00;99.90
5118;DHT22;2578;51.622;7.046;2022-07-17T05:55:43;18.00;99.90
5118;DHT22;2578;51.622;7.046;2022-07-17T05:58:09;18.10;99.90
5118;DHT22;2578;51.622;7.046;2022-07-17T06:00:36;18.50;99.90
5118;DHT22;2578;51.622;7.046;2022-07-17T06:03:02;18.70;99.90
5118;DHT22;2578;51.622;7.046;2022-07-17T06:05:28;18.70;99.90
5118;DHT22;2578;51.622;7.046;2022-07-17T06:07:56;18.70;99.90
5118;DHT22;2578;51.622;7.046;2022-07-17T06:10:22;18.70;99.90
5118;DHT22;2578;51.622;7.046;2022-07-17T06:12:48;18.90;99.90
5118;DHT22;2578;51.622;7.046;2022-07-17T06:15:15;18.90;99.90
5118;DHT22;2578;51.622;7.046;2022-07-17T06:17:41;18.90;99.90
5118;DHT22;2578;51.622;7.046;2022-07-17T06:20:07;19.00;99.90
5118;DHT22;2578;51.622;7.046;2022-07-17T06:22:33;19.20;99.90
5118;DHT22;2578;51.622;7.046;2022-07-17T06:24:59;19.20;99.90
5118;DHT22;2578;51.622;7.046;2022-07-17T06:27:24;19.40;99.90
5118;DHT22;2578;51.622;7.046;2022-07-17T06:29:50;19.60;99.90
5118;DHT22;2578;51.622;7.046;2022-07-17T06:32:16;19.70;99.90
5118;DHT22;2578;51.622;7.046;2022-07-17T06:34:42;19.80;99.20
5118;DHT22;2578;51.622;7.046;2022-07-17T06:37:07;20.00;99.20
5118;DHT22;2578;51.622;7.046;2022-07-17T06:39:33;20.10;96.20
5118;DHT22;2578;51.622;7.046;2022-07-17T06:41:59;19.70;94.50
5118;DHT22;2578;51.622;7.046;2022-07-17T06:44:25;19.70;95.40
5118;DHT22;2578;51.622;7.046;2022-07-17T06:46:50;19.70;94.70
5118;DHT22;2578;51.622;7.046;2022-07-17T06:49:16;19.80;92.50
5118;DHT22;2578;51.622;7.046;2022-07-17T06:51:42;20.00;91.30
5118;DHT22;2578;51.622;7.046;2022-07-17T06:54:11;20.30;92.00
5118;DHT22;2578;51.622;7.046;2022-07-17T06:56:37;20.40;89.90
5118;DHT22;2578;51.622;7.046;2022-07-17T06:59:03;20.60;88.20
5118;DHT22;2578;51.622;7.046;2022-07-17T07:01:29;20.90;83.10
5118;DHT22;2578;51.622;7.046;2022-07-17T07:03:54;21.10;69.80
5118;DHT22;2578;51.622;7.046;2022-07-17T07:06:20;21.20;67.00
5118;DHT22;2578;51.622;7.046;2022-07-17T07:08:45;21.40;65.60
5118;DHT22;2578;51.622;7.046;2022-07-17T07:11:11;21.60;58.60
5118;DHT22;2578;51.622;7.046;2022-07-17T07:13:37;21.70;48.60
5118;DHT22;2578;51.622;7.046;2022-07-17T07:16:03;21.80;50.60
5118;DHT22;2578;51.622;7.046;2022-07-17T07:18:29;22.10;49.00
5118;DHT22;2578;51.622;7.046;2022-07-17T07:20:54;22.40;44.60
5118;DHT22;2578;51.622;7.046;2022-07-17T07:23:20;22.40;32.50
5118;DHT22;2578;51.622;7.046;2022-07-17T07:25:46;22.40;34.30
5118;DHT22;2578;51.622;7.046;2022-07-17T07:28:12;22.60;36.90
5118;DHT22;2578;51.622;7.046;2022-07-17T07:30:37;22.70;29.90
5118;DHT22;2578;51.622;7.046;2022-07-17T07:33:03;23.70;27.30
5118;DHT22;2578;51.622;7.046;2022-07-17T07:35:29;22.80;24.40
5118;DHT22;2578;51.622;7.046;2022-07-17T07:37:54;23.10;24.60
5118;DHT22;2578;51.622;7.046;2022-07-17T07:40:20;23.40;23.20
5118;DHT22;2578;51.622;7.046;2022-07-17T07:42:46;23.40;18.60
5118;DHT22;2578;51.622;7.046;2022-07-17T07:45:11;23.50;19.60
5118;DHT22;2578;51.622;7.046;2022-07-17T07:47:45;23.70;15.40
5118;DHT22;2578;51.622;7.046;2022-07-17T07:50:11;24.10;13.30
5118;DHT22;2578;51.622;7.046;2022-07-17T07:52:38;24.40;7.20
5118;DHT22;2578;51.622;7.046;2022-07-17T07:55:04;24.40;7.50
5118;DHT22;2578;51.622;7.046;2022-07-17T07:57:30;24.60;5.20
5118;DHT22;2578;51.622;7.046;2022-07-17T07:59:56;24.90;2.70
5118;DHT22;2578;51.622;7.046;2022-07-17T08:02:21;25.10;1.80
5118;DHT22;2578;51.622;7.046;2022-07-17T08:04:47;25.30;1.00
5118;DHT22;2578;51.622;7.046;2022-07-17T08:07:13;25.50;1.00
5118;DHT22;2578;51.622;7.046;2022-07-17T08:09:38;25.00;1.00
5118;DHT22;2578;51.622;7.046;2022-07-17T08:12:04;24.60;1.00
5118;DHT22;2578;51.622;7.046;2022-07-17T08:14:30;24.70;1.00
5118;DHT22;2578;51.622;7.046;2022-07-17T08:16:56;24.80;1.00
5118;DHT22;2578;51.622;7.046;2022-07-17T08:19:22;24.50;1.00
5118;DHT22;2578;51.622;7.046;2022-07-17T08:21:47;23.90;1.00
5118;DHT22;2578;51.622;7.046;2022-07-17T08:24:13;23.70;1.00
5118;DHT22;2578;51.622;7.046;2022-07-17T08:26:39;24.00;1.70
5118;DHT22;2578;51.622;7.046;2022-07-17T08:29:04;24.10;1.00
5118;DHT22;2578;51.622;7.046;2022-07-17T08:31:30;24.10;1.00
5118;DHT22;2578;51.622;7.046;2022-07-17T08:33:56;23.90;1.00
5118;DHT22;2578;51.622;7.046;2022-07-17T08:36:21;24.10;1.00
5118;DHT22;2578;51.622;7.046;2022-07-17T08:38:47;24.00;2.10
5118;DHT22;2578;51.622;7.046;2022-07-17T08:41:16;24.00;1.00
5118;DHT22;2578;51.622;7.046;2022-07-17T08:43:43;24.20;1.00
5118;DHT22;2578;51.622;7.046;2022-07-17T08:46:12;24.30;1.00
5118;DHT22;2578;51.622;7.046;2022-07-17T08:48:40;24.50;1.00
5118;DHT22;2578;51.622;7.046;2022-07-17T08:51:07;24.60;1.00
5118;DHT22;2578;51.622;7.046;2022-07-17T08:53:33;24.50;1.00
5118;DHT22;2578;51.622;7.046;2022-07-17T08:55:59;24.70;1.00
5118;DHT22;2578;51.622;7.046;2022-07-17T08:58:25;24.70;1.00
5118;DHT22;2578;51.622;7.046;2022-07-17T09:00:51;24.60;1.00
5118;DHT22;2578;51.622;7.046;2022-07-17T09:03:17;24.40;1.00
5118;DHT22;2578;51.622;7.046;2022-07-17T09:05:44;24.40;1.00
5118;DHT22;2578;51.622;7.046;2022-07-17T09:08:22;24.30;1.00
5118;DHT22;2578;51.622;7.046;2022-07-17T09:10:51;24.00;3.30
5118;DHT22;2578;51.622;7.046;2022-07-17T09:13:22;23.90;4.20
5118;DHT22;2578;51.622;7.046;2022-07-17T09:15:51;24.00;7.20
5118;DHT22;2578;51.622;7.046;2022-07-17T09:18:17;24.30;1.00
5118;DHT22;2578;51.622;7.046;2022-07-17T09:20:55;24.50;1.30
5118;DHT22;2578;51.622;7.046;2022-07-17T09:23:22;25.10;1.00
5118;DHT22;2578;51.622;7.046;2022-07-17T09:25:51;25.10;1.00
5118;DHT22;2578;51.622;7.046;2022-07-17T09:28:18;25.00;1.00
5118;DHT22;2578;51.622;7.046;2022-07-17T09:30:46;25.00;1.00
5118;DHT22;2578;51.622;7.046;2022-07-17T09:33:19;25.30;1.00
5118;DHT22;2578;51.622;7.046;2022-07-17T09:35:53;25.30;1.00
5118;DHT22;2578;51.622;7.046;2022-07-17T09:38:37;25.00;1.00
5118;DHT22;2578;51.622;7.046;2022-07-17T09:41:15;24.80;1.00
5118;DHT22;2578;51.622;7.046;2022-07-17T09:43:45;24.70;1.00
5118;DHT22;2578;51.622;7.046;2022-07-17T09:46:19;24.70;1.00
5118;DHT22;2578;51.622;7.046;2022-07-17T09:48:49;24.60;1.00
5118;DHT22;2578;51.622;7.046;2022-07-17T09:51:20;24.90;1.00
5118;DHT22;2578;51.622;7.046;2022-07-17T09:53:48;25.40;1.00
5118;DHT22;2578;51.622;7.046;2022-07-17T09:56:17;25.50;1.00
5118;DHT22;2578;51.622;7.046;2022-07-17T09:58:48;26.00;1.00
5118;DHT22;2578;51.622;7.046;2022-07-17T10:01:17;26.30;1.00
5118;DHT22;2578;51.622;7.046;2022-07-17T10:03:44;26.90;1.00
5118;DHT22;2578;51.622;7.046;2022-07-17T10:06:10;26.90;1.00
5118;DHT22;2578;51.622;7.046;2022-07-17T10:08:37;27.40;1.00
5118;DHT22;2578;51.622;7.046;2022-07-17T10:11:10;27.70;1.00
5118;DHT22;2578;51.622;7.046;2022-07-17T10:13:39;27.20;1.00
5118;DHT22;2578;51.622;7.046;2022-07-17T10:16:06;27.20;1.00
5118;DHT22;2578;51.622;7.046;2022-07-17T10:18:39;27.50;1.00
5118;DHT22;2578;51.622;7.046;2022-07-17T10:23:35;28.00;1.00
5118;DHT22;2578;51.622;7.046;2022-07-17T10:26:01;28.00;1.00
5118;DHT22;2578;51.622;7.046;2022-07-17T10:28:43;27.60;1.00
5118;DHT22;2578;51.622;7.046;2022-07-17T10:31:10;27.30;1.00
5118;DHT22;2578;51.622;7.046;2022-07-17T10:33:55;26.70;1.00
5118;DHT22;2578;51.622;7.046;2022-07-17T10:36:32;26.50;1.00
5118;DHT22;2578;51.622;7.046;2022-07-17T10:38:58;26.40;1.00
5118;DHT22;2578;51.622;7.046;2022-07-17T10:41:25;26.50;1.00
5118;DHT22;2578;51.622;7.046;2022-07-17T10:43:50;26.70;1.00
5118;DHT22;2578;51.622;7.046;2022-07-17T10:46:16;26.80;1.00
5118;DHT22;2578;51.622;7.046;2022-07-17T10:48:47;27.30;1.00
5118;DHT22;2578;51.622;7.046;2022-07-17T10:51:14;27.80;1.00
5118;DHT22;2578;51.622;7.046;2022-07-17T10:53:39;28.80;1.00
5118;DHT22;2578;51.622;7.046;2022-07-17T10:56:07;29.10;1.00
5118;DHT22;2578;51.622;7.046;2022-07-17T10:58:38;29.70;1.00
5118;DHT22;2578;51.622;7.046;2022-07-17T11:01:07;30.20;1.00
5118;DHT22;2578;51.622;7.046;2022-07-17T11:03:38;30.30;1.00
5118;DHT22;2578;51.622;7.046;2022-07-17T11:06:14;30.20;1.00
5118;DHT22;2578;51.622;7.046;2022-07-17T11:11:17;29.30;1.00
5118;DHT22;2578;51.622;7.046;2022-07-17T11:13:44;29.00;1.00
5118;DHT22;2578;51.622;7.046;2022-07-17T11:16:09;29.20;1.00
5118;DHT22;2578;51.622;7.046;2022-07-17T11:18:35;29.50;1.00
5118;DHT22;2578;51.622;7.046;2022-07-17T11:21:03;29.60;1.00
5118;DHT22;2578;51.622;7.046;2022-07-17T11:23:32;30.10;1.00
5118;DHT22;2578;51.622;7.046;2022-07-17T11:26:06;30.20;1.00
5118;DHT22;2578;51.622;7.046;2022-07-17T11:28:44;30.50;1.00
5118;DHT22;2578;51.622;7.046;2022-07-17T11:31:21;30.60;1.00
5118;DHT22;2578;51.622;7.046;2022-07-17T11:33:55;30.50;1.00
5118;DHT22;2578;51.622;7.046;2022-07-17T11:36:30;30.50;1.00
5118;DHT22;2578;51.622;7.046;2022-07-17T11:39:02;30.70;1.00
5118;DHT22;2578;51.622;7.046;2022-07-17T11:41:33;30.70;1.00
5118;DHT22;2578;51.622;7.046;2022-07-17T11:43:58;30.60;1.00
5118;DHT22;2578;51.622;7.046;2022-07-17T11:46:25;30.60;1.00
5118;DHT22;2578;51.622;7.046;2022-07-17T11:48:52;30.70;1.00
5118;DHT22;2578;51.622;7.046;2022-07-17T11:51:18;30.90;1.00
5118;DHT22;2578;51.622;7.046;2022-07-17T11:53:44;30.50;1.00
5118;DHT22;2578;51.622;7.046;2022-07-17T11:56:19;30.30;1.00
5118;DHT22;2578;51.622;7.046;2022-07-17T11:58:46;30.20;1.00
5118;DHT22;2578;51.622;7.046;2022-07-17T12:01:13;30.50;1.00
5118;DHT22;2578;51.622;7.046;2022-07-17T12:03:39;30.70;1.00
5118;DHT22;2578;51.622;7.046;2022-07-17T12:06:05;30.60;1.00
5118;DHT22;2578;51.622;7.046;2022-07-17T12:08:32;30.30;1.00
5118;DHT22;2578;51.622;7.046;2022-07-17T12:11:06;30.20;1.00
5118;DHT22;2578;51.622;7.046;2022-07-17T12:13:41;30.20;1.00
5118;DHT22;2578;51.622;7.046;2022-07-17T12:19:05;30.20;1.00
5118;DHT22;2578;51.622;7.046;2022-07-17T12:21:32;29.70;1.00
5118;DHT22;2578;51.622;7.046;2022-07-17T12:24:04;29.60;1.00
5118;DHT22;2578;51.622;7.046;2022-07-17T12:26:31;29.80;1.00
5118;DHT22;2578;51.622;7.046;2022-07-17T12:28:57;29.70;1.00
5118;DHT22;2578;51.622;7.046;2022-07-17T12:31:22;29.20;1.00
5118;DHT22;2578;51.622;7.046;2022-07-17T12:33:52;29.30;1.00
5118;DHT22;2578;51.622;7.046;2022-07-17T12:36:19;29.50;1.00
5118;DHT22;2578;51.622;7.046;2022-07-17T12:38:45;29.60;1.00
5118;DHT22;2578;51.622;7.046;2022-07-17T12:41:11;29.70;1.00
5118;DHT22;2578;51.622;7.046;2022-07-17T12:43:37;29.70;1.00
5118;DHT22;2578;51.622;7.046;2022-07-17T12:46:03;29.60;1.00
5118;DHT22;2578;51.622;7.046;2022-07-17T12:48:28;29.60;1.00
5118;DHT22;2578;51.622;7.046;2022-07-17T12:50:54;29.60;1.00
5118;DHT22;2578;51.622;7.046;2022-07-17T12:53:19;29.70;1.00
5118;DHT22;2578;51.622;7.046;2022-07-17T12:55:45;29.80;1.00
5118;DHT22;2578;51.622;7.046;2022-07-17T12:58:10;30.10;1.00
5118;DHT22;2578;51.622;7.046;2022-07-17T13:00:36;30.20;1.00
5118;DHT22;2578;51.622;7.046;2022-07-17T13:03:03;30.30;1.00
5118;DHT22;2578;51.622;7.046;2022-07-17T13:05:29;30.30;1.00
5118;DHT22;2578;51.622;7.046;2022-07-17T13:07:55;30.40;1.00
5118;DHT22;2578;51.622;7.046;2022-07-17T13:10:21;30.00;1.00
5118;DHT22;2578;51.622;7.046;2022-07-17T13:12:46;30.50;1.00
5118;DHT22;2578;51.622;7.046;2022-07-17T13:15:12;30.50;1.00
5118;DHT22;2578;51.622;7.046;2022-07-17T13:17:38;30.90;1.00
5118;DHT22;2578;51.622;7.046;2022-07-17T13:20:04;31.00;1.00
5118;DHT22;2578;51.622;7.046;2022-07-17T13:22:30;31.80;1.00
5118;DHT22;2578;51.622;7.046;2022-07-17T13:24:56;31.70;1.00
5118;DHT22;2578;51.622;7.046;2022-07-17T13:27:22;31.90;1.00
5118;DHT22;2578;51.622;7.046;2022-07-17T13:29:47;32.00;1.00
5118;DHT22;2578;51.622;7.046;2022-07-17T13:32:13;32.30;1.00
5118;DHT22;2578;51.622;7.046;2022-07-17T13:34:39;32.70;1.00
5118;DHT22;2578;51.622;7.046;2022-07-17T13:37:05;32.90;1.00
5118;DHT22;2578;51.622;7.046;2022-07-17T13:39:30;33.20;1.00
5118;DHT22;2578;51.622;7.046;2022-07-17T13:41:56;33.50;1.00
5118;DHT22;2578;51.622;7.046;2022-07-17T13:44:25;33.50;1.00
5118;DHT22;2578;51.622;7.046;2022-07-17T13:46:50;33.50;1.00
5118;DHT22;2578;51.622;7.046;2022-07-17T13:49:16;33.50;1.00
5118;DHT22;2578;51.622;7.046;2022-07-17T13:51:42;33.30;1.00
5118;DHT22;2578;51.622;7.046;2022-07-17T13:54:08;33.10;1.00
5118;DHT22;2578;51.622;7.046;2022-07-17T13:56:34;33.10;1.00
5118;DHT22;2578;51.622;7.046;2022-07-17T13:59:00;32.50;1.00
5118;DHT22;2578;51.622;7.046;2022-07-17T14:01:27;31.80;1.00
5118;DHT22;2578;51.622;7.046;2022-07-17T14:03:53;30.80;1.00
5118;DHT22;2578;51.622;7.046;2022-07-17T14:06:19;30.90;1.00
5118;DHT22;2578;51.622;7.046;2022-07-17T14:08:45;30.90;1.00
5118;DHT22;2578;51.622;7.046;2022-07-17T14:11:11;30.50;1.00
5118;DHT22;2578;51.622;7.046;2022-07-17T14:13:38;30.40;1.00
5118;DHT22;2578;51.622;7.046;2022-07-17T14:16:04;30.60;1.00
5118;DHT22;2578;51.622;7.046;2022-07-17T14:18:30;30.50;1.00
5118;DHT22;2578;51.622;7.046;2022-07-17T14:20:56;30.60;1.00
5118;DHT22;2578;51.622;7.046;2022-07-17T14:23:22;31.30;1.00
5118;DHT22;2578;51.622;7.046;2022-07-17T14:25:47;31.40;1.00
5118;DHT22;2578;51.622;7.046;2022-07-17T14:28:13;31.90;1.00
5118;DHT22;2578;51.622;7.046;2022-07-17T14:30:39;31.70;1.00
5118;DHT22;2578;51.622;7.046;2022-07-17T14:33:05;31.10;1.00
5118;DHT22;2578;51.622;7.046;2022-07-17T14:35:31;31.00;1.00
5118;DHT22;2578;51.622;7.046;2022-07-17T14:37:57;30.40;1.00
5118;DHT22;2578;51.622;7.046;2022-07-17T14:40:23;30.60;1.00
5118;DHT22;2578;51.622;7.046;2022-07-17T14:42:49;31.40;1.00
5118;DHT22;2578;51.622;7.046;2022-07-17T14:45:15;31.40;1.00
5118;DHT22;2578;51.622;7.046;2022-07-17T14:47:41;31.80;1.00
5118;DHT22;2578;51.622;7.046;2022-07-17T14:50:07;32.20;1.00
5118;DHT22;2578;51.622;7.046;2022-07-17T14:52:33;32.40;1.00
5118;DHT22;2578;51.622;7.046;2022-07-17T14:54:59;32.30;1.00
5118;DHT22;2578;51.622;7.046;2022-07-17T14:57:24;31.80;1.00
5118;DHT22;2578;51.622;7.046;2022-07-17T14:59:50;31.20;1.00
5118;DHT22;2578;51.622;7.046;2022-07-17T15:02:16;31.00;1.00
5118;DHT22;2578;51.622;7.046;2022-07-17T15:04:41;30.70;1.00
5118;DHT22;2578;51.622;7.046;2022-07-17T15:07:07;30.70;1.00
5118;DHT22;2578;51.622;7.046;2022-07-17T15:09:33;30.90;1.00
5118;DHT22;2578;51.622;7.046;2022-07-17T15:11:58;31.30;1.00
5118;DHT22;2578;51.622;7.046;2022-07-17T15:14:24;31.70;1.00
5118;DHT22;2578;51.622;7.046;2022-07-17T15:16:49;31.60;1.00
5118;DHT22;2578;51.622;7.046;2022-07-17T15:19:15;31.00;1.00
5118;DHT22;2578;51.622;7.046;2022-07-17T15:21:41;31.00;1.00
5118;DHT22;2578;51.622;7.046;2022-07-17T15:24:07;30.90;1.00
5118;DHT22;2578;51.622;7.046;2022-07-17T15:26:32;31.00;1.00
5118;DHT22;2578;51.622;7.046;2022-07-17T15:28:59;31.40;1.00
5118;DHT22;2578;51.622;7.046;2022-07-17T15:31:25;31.50;1.00
5118;DHT22;2578;51.622;7.046;2022-07-17T15:33:51;31.70;1.00
5118;DHT22;2578;51.622;7.046;2022-07-17T15:36:16;31.50;1.00
5118;DHT22;2578;51.622;7.046;2022-07-17T15:38:56;31.40;1.00
5118;DHT22;2578;51.622;7.046;2022-07-17T15:41:23;30.20;1.00
5118;DHT22;2578;51.622;7.046;2022-07-17T15:43:49;29.50;1.00
5118;DHT22;2578;51.622;7.046;2022-07-17T15:46:15;29.80;1.00
5118;DHT22;2578;51.622;7.046;2022-07-17T15:48:41;30.00;1.00
5118;DHT22;2578;51.622;7.046;2022-07-17T15:51:06;29.60;1.00
5118;DHT22;2578;51.622;7.046;2022-07-17T15:53:32;29.40;1.00
5118;DHT22;2578;51.622;7.046;2022-07-17T15:55:58;29.50;1.00
5118;DHT22;2578;51.622;7.046;2022-07-17T15:58:24;29.70;1.00
5118;DHT22;2578;51.622;7.046;2022-07-17T16:00:49;29.70;1.00
5118;DHT22;2578;51.622;7.046;2022-07-17T16:03:16;29.00;1.00
5118;DHT22;2578;51.622;7.046;2022-07-17T16:05:41;29.10;1.00
5118;DHT22;2578;51.622;7.046;2022-07-17T16:08:07;29.40;1.00
5118;DHT22;2578;51.622;7.046;2022-07-17T16:10:33;29.70;1.00
5118;DHT22;2578;51.622;7.046;2022-07-17T16:12:58;29.80;1.00
5118;DHT22;2578;51.622;7.046;2022-07-17T16:15:24;29.90;1.00
5118;DHT22;2578;51.622;7.046;2022-07-17T16:17:50;29.90;1.00
5118;DHT22;2578;51.622;7.046;2022-07-17T16:20:15;29.80;1.00